Aérodrome :
LOGIN :

S'inscrire | Disclaimer

   EN    FR    IT 

 










Légende :    VFR   VFR Marginal   IFR   IFR Intensif   IFR Très Intensif
Visi : 
Plafond : 
>= 8 km
>= 3000ft
5 à 8 km
1000 à 3000 ft
1500m à 5 km
500 à 1000 ft
800 à 1500m
200 à 500 ft
< 800m
< 200 ft
Symboles :   Orages  Brouillard  Fortes neiges  Fortes précipitations  Vent > 20 kt
SIGMETs :   Divers  Orages  Givrage  Turbulence  Onde Orograph.  Cendres Volcan.






- Altitude de l'aérodrome : 512 ft
- Code IATA : URO


LFOP - Rouen Vallée de Seine

DERNIER METAR :
  • 070230Z AUTO 05003KT 2500 BR SCT020 SCT043 M00/M00 Q1021

METARs EXPIRÉS :
  • 070200Z AUTO 01002KT 0600 R22/0800U FZFG VV/// M01/M01 Q1021
  • 070130Z AUTO 36001KT 0400 0350 R22/0550N FZFG VV/// M00/M00 Q1021
  • 070100Z AUTO 30002KT 0600 0500 R22/0800N FG FEW001 OVC043 01/01 Q1021
  • 070030Z AUTO VRB01KT 0450 R22/0500D FG FEW001 OVC045 01/01 Q1021

TAF TAF LFOP
Valide du 06 à 18h jusqu'au 07 à 18h UTC


061700Z 0618/0718 28005KT 0800 FG VV///
TEMPO 0618/0709 0300
BECMG 0712/0714 7000 NSW SCT007
ATIS : +33 2 35 80 80 34
Météo : +33 2 32 86 52 80



MET'MAP, la Météo Aéronautique d'un coup d'oeil ! - Copyright ORBIFLY Décembre 2007 - Disclaimer

ORBIFLY MET'MAP TEAM :

Programmation & Développement : Alexandra Zaïnal
Sur une idée originale de : Baudouin d'Aumeries
Soutien technique & logistique : Manuel Goepfert
Assistance : Marc-Olivier Méhu




SOURCES & CREDITS :

   NOAA